SAEZ/EZE METAR and TAF weather

Enter ICAO airport designator
Station Type Date Time Source
SAEZ METAR 2022/11/30 11:00 UTC NOAA

SAEZ 301100Z 14008KT CAVOK 25/19 Q1007 NOSIG RMK PP000


Station Type Date Time Source
SAEZ Decoded METAR 2022/11/30 11:00 UTC NOAA

Ezeiza Aerodrome, Argentina (SAEZ) 34-49S 058-32W 20M
Nov 30, 2022 - 06:00 AM EST / 2022.11.30 1100 UTC
Wind: from the SE (140 degrees) at 9 MPH (8 KT):0
Visibility: greater than 7 mile(s):0
Temperature: 77 F (25 C)
Dew Point: 66 F (19 C)
Relative Humidity: 69%
Pressure (altimeter): 29.74 in. Hg (1007 hPa)
ob: SAEZ 301100Z 14008KT CAVOK 25/19 Q1007 NOSIG RMK PP000
cycle: 11

Station Type Date Time Source
SAEZ TAF 2022/11/30 06:15 UTC NOAA

TAF TAF SAEZ 300500Z 3006/0106 04010KT CAVOK TX32/3015Z TN22/3008Z
BECMG 3010/3012 VRB05KT 9999 SCT030 FEW040TCU PROB30
TEMPO 3015/3018 7000 -TSRA FEW045CB
BECMG 3018/3020 18015G30KT 5000 TSRA FEW040CB
BECMG 3022/3024 12010KT 7000 -RA BKN020
TEMPO 3024/0106 5000 RA OVC020

Example: see airport list